createdAt,value
2023-04-21T00:00:18.327Z,75.60
2023-04-21T00:05:22.495Z,75.47
2023-04-21T00:10:25.910Z,75.79
2023-04-21T00:15:29.650Z,75.70
2023-04-21T00:20:33.768Z,75.72
2023-04-21T00:25:38.225Z,76.90
2023-04-21T00:30:42.093Z,76.49
2023-04-21T00:35:45.302Z,76.21
2023-04-21T00:40:49.142Z,76.04
2023-04-21T00:45:52.607Z,76.88
2023-04-21T00:50:56.944Z,77.23
2023-04-21T00:56:00.142Z,77.89
2023-04-21T01:01:05.713Z,78.32
2023-04-21T01:06:10.221Z,77.47
2023-04-21T01:11:14.994Z,77.08
2023-04-21T01:16:19.063Z,75.96
2023-04-21T01:21:23.915Z,75.07
2023-04-21T01:26:27.496Z,74.49
2023-04-21T01:31:31.492Z,73.57
2023-04-21T01:36:37.719Z,72.35
2023-04-21T01:41:41.869Z,71.98
2023-04-21T01:46:45.892Z,71.97
2023-04-21T01:51:49.557Z,69.84
2023-04-21T01:56:53.918Z,70.58
2023-04-21T02:01:58.272Z,70.68
2023-04-21T02:07:02.530Z,69.48
2023-04-21T02:12:06.417Z,69.35
2023-04-21T02:17:10.685Z,70.10
2023-04-21T02:22:14.428Z,68.88
2023-04-21T02:27:17.802Z,70.10
2023-04-21T02:32:25.960Z,70.01
2023-04-21T02:37:30.058Z,69.34
2023-04-21T02:42:35.123Z,69.22
2023-04-21T02:47:38.403Z,68.47
2023-04-21T02:52:41.642Z,69.67
2023-04-21T02:57:45.371Z,71.13
2023-04-21T03:02:49.348Z,70.61
2023-04-21T03:07:53.593Z,70.55
2023-04-21T03:12:57.657Z,70.56
2023-04-21T03:18:01.955Z,71.11
2023-04-21T03:23:05.476Z,70.81
2023-04-21T03:28:10.521Z,70.79
2023-04-21T03:33:13.676Z,71.41
2023-04-21T03:38:17.763Z,71.37
2023-04-21T03:43:22.128Z,71.74
2023-04-21T03:48:26.135Z,72.19
2023-04-21T03:53:29.698Z,73.68
2023-04-21T03:58:33.269Z,75.04
2023-04-21T04:03:36.988Z,75.32
2023-04-21T04:08:41.234Z,76.04
2023-04-21T04:13:44.962Z,74.64
2023-04-21T04:18:51.458Z,74.16
2023-04-21T04:23:55.264Z,72.93
2023-04-21T04:29:05.468Z,71.11
2023-04-21T04:34:09.918Z,69.70
2023-04-21T04:39:14.763Z,69.32
2023-04-21T04:44:19.248Z,69.20
2023-04-21T04:49:24.182Z,68.45
2023-04-21T04:54:29.504Z,68.37
2023-04-21T04:59:33.245Z,68.55
2023-04-21T05:04:37.401Z,69.41
2023-04-21T05:09:40.672Z,69.63
2023-04-21T05:14:44.622Z,68.62
2023-04-21T05:19:48.108Z,69.35
2023-04-21T05:24:51.728Z,70.67
2023-04-21T05:29:57.093Z,71.11
2023-04-21T05:35:00.614Z,72.41
2023-04-21T05:40:04.051Z,76.93
2023-04-21T05:45:08.617Z,74.49
2023-04-21T05:50:12.869Z,74.68
2023-04-21T05:55:16.621Z,76.57
2023-04-21T06:00:20.237Z,75.39
2023-04-21T06:05:23.936Z,76.40
2023-04-21T06:10:27.667Z,77.03
2023-04-21T06:15:30.841Z,75.22
2023-04-21T06:20:34.081Z,72.63
2023-04-21T06:25:37.211Z,66.04
2023-04-21T06:30:41.159Z,60.12
2023-04-21T06:35:44.795Z,52.11
2023-04-21T06:40:48.369Z,48.60
2023-04-21T06:45:52.278Z,47.48
2023-04-21T06:50:56.369Z,47.86
2023-04-21T06:56:00.319Z,44.60
2023-04-21T07:01:04.053Z,46.85
2023-04-21T07:06:07.890Z,52.98
2023-04-21T07:11:12.157Z,45.98
2023-04-21T07:16:15.576Z,43.14
2023-04-21T07:21:19.070Z,41.84
2023-04-21T07:26:23.099Z,41.58
2023-04-21T07:31:26.789Z,40.92
2023-04-21T07:36:31.325Z,41.94
2023-04-21T07:41:36.190Z,42.44
2023-04-21T07:46:40.470Z,40.92
2023-04-21T07:51:44.361Z,42.38
2023-04-21T07:56:47.977Z,43.77
2023-04-21T08:01:52.044Z,39.73
2023-04-21T08:06:56.432Z,45.41
2023-04-21T08:12:00.161Z,43.41
2023-04-21T08:17:03.691Z,41.09
2023-04-21T08:22:07.458Z,39.88
2023-04-21T08:27:10.662Z,39.64
2023-04-21T08:32:14.354Z,43.00
2023-04-21T08:37:19.234Z,46.09
2023-04-21T08:42:22.803Z,45.67
2023-04-21T08:47:26.581Z,45.52
2023-04-21T08:52:29.793Z,43.24
2023-04-21T08:57:33.866Z,45.15
2023-04-21T09:03:01.281Z,47.26
2023-04-21T09:08:19.446Z,45.72
2023-04-21T09:13:31.221Z,47.53
2023-04-21T09:18:41.639Z,49.03
2023-04-21T09:23:47.275Z,47.18
2023-04-21T09:28:53.345Z,46.28
2023-04-21T09:34:01.023Z,48.98
2023-04-21T09:44:14.254Z,50.41
2023-04-21T09:49:18.763Z,50.49
2023-04-21T09:54:30.471Z,50.86
2023-04-21T09:59:39.130Z,48.00
2023-04-21T10:04:44.059Z,47.22
2023-04-21T10:09:54.832Z,49.82
2023-04-21T10:14:58.947Z,47.20
2023-04-21T10:20:02.324Z,48.94
2023-04-21T10:25:10.397Z,48.49
2023-04-21T10:30:21.177Z,46.09
2023-04-21T10:35:24.880Z,46.14
2023-04-21T10:40:42.964Z,47.02
2023-04-21T10:45:47.720Z,44.37
2023-04-21T10:50:51.347Z,44.54
2023-04-21T10:55:55.086Z,43.47
2023-04-21T11:00:59.462Z,45.02
2023-04-21T11:06:15.146Z,43.86
2023-04-21T11:11:24.508Z,47.66
2023-04-21T11:16:28.200Z,51.94
2023-04-21T11:21:33.380Z,49.32
2023-04-21T11:26:42.890Z,49.50
2023-04-21T11:31:49.223Z,50.72
2023-04-21T11:36:54.024Z,44.93
2023-04-21T11:41:58.058Z,42.56
2023-04-21T11:47:12.342Z,41.54
2023-04-21T11:52:34.586Z,40.32
2023-04-21T11:57:53.384Z,39.58
2023-04-21T12:03:08.862Z,34.95
2023-04-21T12:08:34.962Z,37.83
2023-04-21T12:13:41.098Z,38.30
2023-04-21T12:18:44.663Z,36.36
2023-04-21T12:23:48.809Z,35.91
2023-04-21T12:34:31.113Z,34.79
2023-04-21T12:39:34.864Z,33.57
2023-04-21T12:44:40.279Z,33.98
2023-04-21T12:49:44.492Z,33.38
2023-04-21T12:54:47.579Z,31.52
2023-04-21T12:59:51.420Z,33.10
2023-04-21T13:04:54.633Z,33.17
2023-04-21T13:09:58.700Z,32.93
2023-04-21T13:15:02.444Z,35.03
2023-04-21T13:20:07.535Z,32.84
2023-04-21T13:25:10.864Z,33.56
2023-04-21T13:30:16.134Z,29.95
2023-04-21T13:35:19.323Z,29.93
2023-04-21T13:40:23.002Z,31.38
2023-04-21T13:45:26.986Z,28.40
2023-04-21T13:50:30.686Z,30.13
2023-04-21T13:55:34.319Z,28.27
2023-04-21T14:00:39.061Z,29.95
2023-04-21T14:05:43.053Z,32.08
2023-04-21T14:10:47.402Z,30.19
2023-04-21T14:15:51.450Z,30.81
2023-04-21T14:20:55.109Z,35.13
2023-04-21T14:25:59.140Z,34.49
2023-04-21T14:31:04.474Z,39.02
2023-04-21T14:36:08.527Z,35.45
2023-04-21T14:41:12.798Z,39.43
2023-04-21T14:46:16.176Z,40.42
2023-04-21T14:51:20.488Z,42.67
2023-04-21T14:56:24.508Z,42.51
2023-04-21T15:01:28.053Z,43.23
2023-04-21T15:06:31.904Z,45.86
2023-04-21T15:11:35.662Z,45.47
2023-04-21T15:16:39.351Z,47.83
2023-04-21T15:21:43.441Z,49.60
2023-04-21T15:26:47.411Z,49.08
2023-04-21T15:31:51.108Z,50.82
2023-04-21T15:36:54.908Z,50.95
2023-04-21T15:41:59.441Z,51.50
2023-04-21T15:47:02.736Z,51.16
2023-04-21T15:52:07.302Z,52.61
2023-04-21T15:57:11.528Z,52.45
2023-04-21T16:02:16.018Z,53.37
2023-04-21T16:07:20.313Z,55.52
2023-04-21T16:12:23.981Z,57.48
2023-04-21T16:17:28.216Z,58.64
2023-04-21T16:22:32.650Z,61.27
2023-04-21T16:27:35.765Z,62.94
2023-04-21T16:32:39.654Z,63.74
2023-04-21T16:37:44.596Z,66.08
2023-04-21T16:42:49.198Z,67.32
2023-04-21T16:47:53.396Z,68.23
2023-04-21T16:52:57.396Z,70.74
2023-04-21T16:58:01.456Z,70.47
2023-04-21T17:03:05.294Z,71.00
2023-04-21T17:08:09.528Z,70.64
2023-04-21T17:13:13.021Z,71.40
2023-04-21T17:18:17.169Z,71.13
2023-04-21T17:23:20.604Z,71.97
2023-04-21T17:28:32.473Z,73.15
2023-04-21T17:33:36.537Z,74.49
2023-04-21T17:38:42.062Z,76.29
2023-04-21T17:43:46.025Z,78.35
2023-04-21T17:48:50.101Z,79.33
2023-04-21T17:53:54.660Z,80.71
2023-04-21T17:58:57.936Z,81.54
2023-04-21T18:04:02.068Z,81.57
2023-04-21T18:09:05.965Z,80.80
2023-04-21T18:14:09.659Z,78.30
2023-04-21T18:19:13.608Z,70.15
2023-04-21T18:24:17.226Z,64.74
2023-04-21T18:29:20.510Z,65.99
2023-04-21T18:34:24.289Z,65.40
2023-04-21T18:39:27.801Z,63.16
2023-04-21T18:44:32.160Z,63.49
2023-04-21T18:49:35.831Z,63.16
2023-04-21T18:54:40.171Z,62.91
2023-04-21T18:59:43.808Z,62.75
2023-04-21T19:04:48.039Z,62.27
2023-04-21T19:09:52.390Z,62.81
2023-04-21T19:14:56.669Z,62.21
2023-04-21T19:20:00.961Z,62.83
2023-04-21T19:25:06.413Z,63.49
2023-04-21T19:30:10.109Z,62.56
2023-04-21T19:35:13.756Z,63.30
2023-04-21T19:40:17.862Z,63.09
2023-04-21T19:45:21.387Z,62.97
2023-04-21T19:50:25.473Z,62.95
2023-04-21T19:55:29.196Z,64.02
2023-04-21T20:00:32.890Z,64.79
2023-04-21T20:05:36.496Z,64.46
2023-04-21T20:10:45.491Z,64.41
2023-04-21T20:15:49.638Z,65.05
2023-04-21T20:20:53.177Z,65.02
2023-04-21T20:25:58.273Z,66.07
2023-04-21T20:31:02.009Z,66.18
2023-04-21T20:36:07.624Z,66.63
2023-04-21T20:41:11.192Z,66.36
2023-04-21T20:46:16.002Z,66.74
2023-04-21T20:51:19.683Z,66.92
2023-04-21T20:56:22.962Z,67.04
2023-04-21T21:01:28.675Z,67.30
2023-04-21T21:06:33.977Z,67.17
2023-04-21T21:11:37.582Z,68.03
2023-04-21T21:16:40.971Z,68.96
2023-04-21T21:21:44.975Z,68.96
2023-04-21T21:26:48.455Z,70.23
2023-04-21T21:31:52.054Z,70.08
2023-04-21T21:36:55.895Z,70.67
2023-04-21T21:41:59.515Z,70.65
2023-04-21T21:47:03.704Z,70.72
2023-04-21T21:52:06.967Z,70.95
2023-04-21T21:57:10.240Z,71.99
2023-04-21T22:02:13.867Z,71.79
2023-04-21T22:07:17.916Z,71.25
2023-04-21T22:12:21.925Z,72.29
2023-04-21T22:17:26.106Z,73.30
2023-04-21T22:22:29.393Z,73.26
2023-04-21T22:27:34.074Z,73.89
2023-04-21T22:32:37.953Z,74.96
2023-04-21T22:37:42.663Z,75.75
2023-04-21T22:42:46.828Z,76.76
2023-04-21T22:47:51.416Z,77.45
2023-04-21T22:52:55.415Z,78.09
2023-04-21T22:57:59.116Z,79.27
2023-04-21T23:03:03.255Z,80.69
2023-04-21T23:08:07.392Z,81.80
2023-04-21T23:13:11.155Z,81.89
2023-04-21T23:18:14.737Z,81.79
2023-04-21T23:23:18.842Z,81.75
2023-04-21T23:28:22.269Z,82.29
2023-04-21T23:33:25.892Z,82.86
2023-04-21T23:38:29.284Z,83.29
2023-04-21T23:43:34.857Z,84.56
2023-04-21T23:48:38.400Z,84.86
2023-04-21T23:53:42.574Z,85.69
2023-04-21T23:58:46.124Z,86.22
